createdAt,value
2023-05-05T00:02:11.298Z,96607.44
2023-05-05T00:04:37.673Z,96598.38
2023-05-05T00:07:04.070Z,96606.31
2023-05-05T00:09:30.489Z,96605.78
2023-05-05T00:11:56.837Z,96608.94
2023-05-05T00:14:23.187Z,96611.59
2023-05-05T00:16:49.534Z,96605.47
2023-05-05T00:19:15.948Z,96601.50
2023-05-05T00:21:42.311Z,96602.03
2023-05-05T00:24:08.659Z,96599.09
2023-05-05T00:26:35.015Z,96590.91
2023-05-05T00:29:01.381Z,96588.78
2023-05-05T00:31:27.758Z,96588.25
2023-05-05T00:33:54.106Z,96591.97
2023-05-05T00:36:20.449Z,96592.22
2023-05-05T00:38:46.834Z,96582.91
2023-05-05T00:41:13.179Z,96594.97
2023-05-05T00:43:39.524Z,96589.09
2023-05-05T00:46:05.939Z,96589.09
2023-05-05T00:48:32.312Z,96584.84
2023-05-05T00:50:58.700Z,96583.28
2023-05-05T00:53:25.048Z,96581.06
2023-05-05T00:55:51.433Z,96572.41
2023-05-05T00:58:17.787Z,96580.34
2023-05-05T01:00:44.168Z,96580.38
2023-05-05T01:03:10.622Z,96577.72
2023-05-05T01:05:37.058Z,96579.03
2023-05-05T01:08:03.397Z,96579.84
2023-05-05T01:10:29.788Z,96575.31
2023-05-05T01:12:56.185Z,96579.56
2023-05-05T01:15:22.613Z,96578.22
2023-05-05T01:17:49.004Z,96572.94
2023-05-05T01:20:15.397Z,96575.06
2023-05-05T01:22:41.742Z,96578.78
2023-05-05T01:25:08.121Z,96576.66
2023-05-05T01:27:34.542Z,96577.47
2023-05-05T01:30:00.945Z,96583.00
2023-05-05T01:32:27.336Z,96583.00
2023-05-05T01:34:53.760Z,96572.38
2023-05-05T01:37:20.143Z,96570.81
2023-05-05T01:39:46.489Z,96572.38
2023-05-05T01:42:12.830Z,96569.41
2023-05-05T01:44:39.192Z,96572.28
2023-05-05T01:47:05.584Z,96571.19
2023-05-05T01:49:31.933Z,96573.50
2023-05-05T01:51:58.289Z,96570.53
2023-05-05T01:54:24.623Z,96568.91
2023-05-05T01:56:50.962Z,96568.84
2023-05-05T01:59:17.304Z,96573.06
2023-05-05T02:01:43.731Z,96578.84
2023-05-05T02:04:10.119Z,96571.53
2023-05-05T02:06:37.550Z,96568.34
2023-05-05T02:09:03.942Z,96565.66
2023-05-05T02:11:30.299Z,96570.38
2023-05-05T02:13:56.696Z,96571.63
2023-05-05T02:16:23.154Z,96574.81
2023-05-05T02:18:49.630Z,96567.94
2023-05-05T02:21:16.023Z,96574.25
2023-05-05T02:23:42.386Z,96570.84
2023-05-05T02:26:08.726Z,96569.81
2023-05-05T02:28:35.064Z,96570.28
2023-05-05T02:31:01.457Z,96577.66
2023-05-05T02:33:27.806Z,96576.53
2023-05-05T02:35:54.185Z,96574.22
2023-05-05T02:38:20.527Z,96581.00
2023-05-05T02:40:46.916Z,96573.56
2023-05-05T02:43:13.318Z,96570.56
2023-05-05T02:45:39.700Z,96567.88
2023-05-05T02:48:06.106Z,96566.06
2023-05-05T02:50:32.491Z,96565.56
2023-05-05T02:52:58.827Z,96572.38
2023-05-05T02:55:25.161Z,96569.41
2023-05-05T02:57:51.498Z,96568.75
2023-05-05T03:00:17.879Z,96568.16
2023-05-05T03:02:44.358Z,96570.00
2023-05-05T03:05:10.789Z,96565.28
2023-05-05T03:07:37.139Z,96566.09
2023-05-05T03:10:03.515Z,96560.50
2023-05-05T03:12:29.933Z,96571.13
2023-05-05T03:14:56.274Z,96557.81
2023-05-05T03:17:22.655Z,96567.59
2023-05-05T03:19:49.079Z,96557.22
2023-05-05T03:22:15.477Z,96566.19
2023-05-05T03:24:41.830Z,96560.09
2023-05-05T03:27:08.220Z,96568.00
2023-05-05T03:29:34.575Z,96563.00
2023-05-05T03:32:00.988Z,96558.78
2023-05-05T03:34:27.396Z,96560.94
2023-05-05T03:36:53.793Z,96559.91
2023-05-05T03:39:20.201Z,96565.06
2023-05-05T03:41:46.579Z,96560.75
2023-05-05T03:44:12.979Z,96557.56
2023-05-05T03:46:39.333Z,96555.72
2023-05-05T03:49:05.686Z,96552.69
2023-05-05T03:51:32.087Z,96549.50
2023-05-05T03:53:58.485Z,96550.63
2023-05-05T03:56:24.821Z,96563.22
2023-05-05T03:58:51.192Z,96556.38
2023-05-05T04:01:17.547Z,96560.13
2023-05-05T04:03:43.920Z,96559.38
2023-05-05T04:06:10.345Z,96556.00
2023-05-05T04:08:36.725Z,96557.66
2023-05-05T04:11:03.099Z,96557.28
2023-05-05T04:13:29.479Z,96554.16
2023-05-05T04:15:55.913Z,96549.47
2023-05-05T04:18:22.317Z,96559.69
2023-05-05T04:20:48.666Z,96553.19
2023-05-05T04:23:15.052Z,96552.25
2023-05-05T04:25:41.444Z,96553.38
2023-05-05T04:28:07.782Z,96559.19
2023-05-05T04:30:34.156Z,96562.41
2023-05-05T04:33:00.553Z,96562.03
2023-05-05T04:35:26.956Z,96562.63
2023-05-05T04:37:53.297Z,96552.44
2023-05-05T04:40:19.651Z,96552.25
2023-05-05T04:42:45.992Z,96556.53
2023-05-05T04:45:12.329Z,96554.41
2023-05-05T04:47:38.736Z,96553.94
2023-05-05T04:50:05.267Z,96539.97
2023-05-05T04:52:31.725Z,96554.09
2023-05-05T04:54:58.079Z,96547.28
2023-05-05T04:57:24.432Z,96539.94
2023-05-05T04:59:50.767Z,96548.66
2023-05-05T05:02:17.149Z,96554.75
2023-05-05T05:04:43.521Z,96562.63
2023-05-05T05:07:09.887Z,96556.81
2023-05-05T05:09:36.231Z,96562.09
2023-05-05T05:12:02.612Z,96561.06
2023-05-05T05:14:29.006Z,96557.34
2023-05-05T05:16:55.438Z,96566.91
2023-05-05T05:19:21.830Z,96565.84
2023-05-05T05:21:48.179Z,96570.59
2023-05-05T05:24:14.554Z,96559.50
2023-05-05T05:26:40.905Z,96560.88
2023-05-05T05:29:07.282Z,96563.50
2023-05-05T05:31:33.696Z,96572.28
2023-05-05T05:34:00.076Z,96567.56
2023-05-05T05:36:26.474Z,96578.19
2023-05-05T05:38:52.841Z,96575.53
2023-05-05T05:41:19.170Z,96581.88
2023-05-05T05:43:45.551Z,96577.69
2023-05-05T05:46:11.954Z,96579.81
2023-05-05T05:48:38.331Z,96582.44
2023-05-05T05:51:04.708Z,96582.44
2023-05-05T05:53:31.107Z,96580.91
2023-05-05T05:55:57.475Z,96584.06
2023-05-05T05:58:23.868Z,96589.91
2023-05-05T06:00:50.222Z,96584.34
2023-05-05T06:03:16.771Z,96588.31
2023-05-05T06:05:43.247Z,96581.69
2023-05-05T06:08:09.600Z,96580.94
2023-05-05T06:10:35.967Z,96586.75
2023-05-05T06:13:02.431Z,96590.75
2023-05-05T06:15:28.857Z,96582.53
2023-05-05T06:17:55.304Z,96584.66
2023-05-05T06:20:21.700Z,96585.19
2023-05-05T06:22:48.044Z,96583.34
2023-05-05T06:25:14.387Z,96588.38
2023-05-05T06:27:40.792Z,96584.13
2023-05-05T06:30:07.357Z,96584.63
2023-05-05T06:32:34.028Z,96577.22
2023-05-05T06:35:00.393Z,96587.78
2023-05-05T06:37:26.767Z,96580.88
2023-05-05T06:39:53.128Z,96577.19
2023-05-05T06:42:19.458Z,96582.97
2023-05-05T06:44:45.887Z,96585.59
2023-05-05T06:47:12.272Z,96574.94
2023-05-05T06:49:38.631Z,96582.91
2023-05-05T06:52:04.973Z,96580.25
2023-05-05T06:54:31.319Z,96578.13
2023-05-05T06:56:59.456Z,96581.78
2023-05-05T06:59:26.097Z,96581.81
2023-05-05T07:01:52.505Z,96574.94
2023-05-05T07:04:19.002Z,96580.78
2023-05-05T07:06:45.497Z,96580.19
2023-05-05T07:09:11.897Z,96573.28
2023-05-05T07:11:38.498Z,96579.88
2023-05-05T07:14:04.911Z,96569.50
2023-05-05T07:16:31.289Z,96571.09
2023-05-05T07:18:57.683Z,96574.97
2023-05-05T07:21:24.015Z,96576.88
2023-05-05T07:23:50.402Z,96574.22
2023-05-05T07:26:16.806Z,96576.25
2023-05-05T07:28:43.228Z,96576.47
2023-05-05T07:31:09.599Z,96569.31
2023-05-05T07:33:35.946Z,96573.09
2023-05-05T07:36:02.344Z,96573.09
2023-05-05T07:38:28.694Z,96577.09
2023-05-05T07:40:55.180Z,96567.81
2023-05-05T07:43:21.572Z,96564.06
2023-05-05T07:45:47.980Z,96564.53
2023-05-05T07:48:14.436Z,96556.84
2023-05-05T07:50:40.808Z,96561.13
2023-05-05T07:53:14.333Z,96566.66
2023-05-05T07:55:41.370Z,96559.22
2023-05-05T07:58:07.765Z,96558.16
2023-05-05T08:00:34.163Z,96548.56
2023-05-05T08:03:00.613Z,96554.97
2023-05-05T08:05:27.051Z,96549.59
2023-05-05T08:07:53.435Z,96548.31
2023-05-05T08:10:19.833Z,96545.63
2023-05-05T08:12:46.205Z,96542.19
2023-05-05T08:15:12.605Z,96542.09
2023-05-05T08:17:38.997Z,96547.91
2023-05-05T08:20:05.434Z,96544.72
2023-05-05T08:22:31.777Z,96540.75
2023-05-05T08:24:58.164Z,96546.38
2023-05-05T08:27:24.502Z,96543.19
2023-05-05T08:29:50.841Z,96548.28
2023-05-05T08:32:17.239Z,96537.88
2023-05-05T08:34:43.584Z,96544.81
2023-05-05T08:37:09.923Z,96542.09
2023-05-05T08:39:36.278Z,96540.66
2023-05-05T08:42:02.673Z,96536.78
2023-05-05T08:44:29.035Z,96538.31
2023-05-05T08:46:55.393Z,96536.91
2023-05-05T08:49:21.804Z,96528.06
2023-05-05T08:51:48.159Z,96533.59
2023-05-05T08:54:14.533Z,96531.03
2023-05-05T08:56:40.890Z,96525.69
2023-05-05T08:59:07.274Z,96530.19
2023-05-05T09:01:33.670Z,96522.19
2023-05-05T09:04:00.196Z,96519.88
2023-05-05T09:06:26.616Z,96518.34
2023-05-05T09:08:52.973Z,96516.38
2023-05-05T09:11:19.313Z,96503.94
2023-05-05T09:13:45.698Z,96512.47
2023-05-05T09:16:12.055Z,96512.75
2023-05-05T09:18:38.432Z,96515.56
2023-05-05T09:21:04.842Z,96514.06
2023-05-05T09:23:31.192Z,96516.38
2023-05-05T09:25:57.568Z,96522.13
2023-05-05T09:28:23.915Z,96511.31
2023-05-05T09:30:50.313Z,96513.63
2023-05-05T09:33:16.732Z,96515.19
2023-05-05T09:35:43.099Z,96509.97
2023-05-05T09:38:09.498Z,96504.06
2023-05-05T09:40:35.898Z,96503.88
2023-05-05T09:43:02.337Z,96500.06
2023-05-05T09:45:28.681Z,96496.31
2023-05-05T09:47:59.645Z,96490.00
2023-05-05T09:50:27.030Z,96487.72
2023-05-05T09:52:53.381Z,96484.81
2023-05-05T09:55:19.716Z,96482.81
2023-05-05T09:57:46.112Z,96482.50
2023-05-05T10:00:12.498Z,96473.91
2023-05-05T10:02:38.960Z,96474.22
2023-05-05T10:05:05.414Z,96464.50
2023-05-05T10:07:31.816Z,96467.09
2023-05-05T10:09:58.210Z,96473.00
2023-05-05T10:12:24.575Z,96474.94
2023-05-05T10:14:50.909Z,96475.31
2023-05-05T10:17:17.273Z,96472.56
2023-05-05T10:19:43.666Z,96475.09
2023-05-05T10:22:10.064Z,96475.75
2023-05-05T10:24:36.438Z,96466.25
2023-05-05T10:27:02.882Z,96465.75
2023-05-05T10:29:29.319Z,96462.44
2023-05-05T10:31:55.778Z,96470.50
2023-05-05T10:34:22.278Z,96470.19
2023-05-05T10:36:48.671Z,96459.19
2023-05-05T10:39:15.102Z,96458.44
2023-05-05T10:41:41.512Z,96456.16
2023-05-05T10:44:09.401Z,96457.59
2023-05-05T10:46:35.837Z,96464.53
2023-05-05T10:49:02.278Z,96460.03
2023-05-05T10:51:39.409Z,96455.78
2023-05-05T10:54:07.138Z,96456.47
2023-05-05T10:56:33.574Z,96449.38
2023-05-05T10:59:00.827Z,96455.28
2023-05-05T11:01:27.530Z,96449.44
2023-05-05T11:03:54.046Z,96444.63
2023-05-05T11:06:20.439Z,96445.25
2023-05-05T11:08:46.802Z,96446.63
2023-05-05T11:11:13.153Z,96438.72
2023-05-05T11:13:39.517Z,96432.22
2023-05-05T11:16:05.914Z,96432.22
2023-05-05T11:18:32.255Z,96437.47
2023-05-05T11:20:58.630Z,96435.56
2023-05-05T11:23:25.050Z,96431.34
2023-05-05T11:25:51.463Z,96430.66
2023-05-05T11:28:17.881Z,96419.59
2023-05-05T11:30:44.289Z,96419.22
2023-05-05T11:33:10.696Z,96411.31
2023-05-05T11:35:37.050Z,96415.75
2023-05-05T11:38:03.425Z,96411.13
2023-05-05T11:40:29.823Z,96410.25
2023-05-05T11:42:56.170Z,96413.28
2023-05-05T11:45:22.524Z,96409.38
2023-05-05T11:47:48.984Z,96407.03
2023-05-05T11:50:15.392Z,96403.66
2023-05-05T11:52:41.783Z,96404.03
2023-05-05T11:55:08.176Z,96407.97
2023-05-05T11:57:34.523Z,96407.16
2023-05-05T12:00:00.854Z,96413.25
2023-05-05T12:02:27.262Z,96408.81
2023-05-05T12:04:53.786Z,96399.72
2023-05-05T12:07:20.231Z,96400.50
2023-05-05T12:09:46.597Z,96391.53
2023-05-05T12:12:13.027Z,96397.94
2023-05-05T12:14:39.383Z,96396.94
2023-05-05T12:17:05.759Z,96398.31
2023-05-05T12:19:32.153Z,96386.78
2023-05-05T12:21:58.547Z,96392.72
2023-05-05T12:24:24.937Z,96389.34
2023-05-05T12:26:51.288Z,96388.38
2023-05-05T12:29:17.635Z,96380.88
2023-05-05T12:31:44.009Z,96386.19
2023-05-05T12:34:10.388Z,96381.19
2023-05-05T12:36:36.732Z,96388.63
2023-05-05T12:39:03.075Z,96378.94
2023-05-05T12:41:29.411Z,96380.72
2023-05-05T12:43:55.746Z,96387.81
2023-05-05T12:46:22.174Z,96374.75
2023-05-05T12:48:48.741Z,96370.84
2023-05-05T12:51:15.129Z,96364.50
2023-05-05T12:53:41.487Z,96367.81
2023-05-05T12:56:07.867Z,96360.13
2023-05-05T12:58:34.254Z,96356.25
2023-05-05T13:01:00.626Z,96355.22
2023-05-05T13:03:27.107Z,96355.53
2023-05-05T13:05:53.584Z,96356.38
2023-05-05T13:08:19.968Z,96350.75
2023-05-05T13:10:46.366Z,96349.03
2023-05-05T13:13:12.793Z,96331.88
2023-05-05T13:15:39.207Z,96342.34
2023-05-05T13:18:05.580Z,96340.28
2023-05-05T13:20:31.999Z,96332.75
2023-05-05T13:22:58.353Z,96332.44
2023-05-05T13:25:24.691Z,96336.22
2023-05-05T13:27:51.093Z,96331.19
2023-05-05T13:30:17.477Z,96325.03
2023-05-05T13:32:43.851Z,96320.00
2023-05-05T13:35:10.711Z,96321.59
2023-05-05T13:37:37.989Z,96319.00
2023-05-05T13:40:04.422Z,96305.00
2023-05-05T13:42:30.914Z,96306.38
2023-05-05T13:44:57.308Z,96303.38
2023-05-05T13:47:23.750Z,96309.34
2023-05-05T13:49:50.294Z,96299.25
2023-05-05T13:52:16.660Z,96298.22
2023-05-05T13:54:43.088Z,96292.22
2023-05-05T13:57:09.443Z,96303.19
2023-05-05T13:59:35.787Z,96285.81
2023-05-05T14:02:02.110Z,96290.91
2023-05-05T14:04:28.515Z,96291.41
2023-05-05T14:06:54.868Z,96289.03
2023-05-05T14:09:21.256Z,96295.09
2023-05-05T14:11:47.633Z,96291.34
2023-05-05T14:14:13.987Z,96284.06
2023-05-05T14:16:40.423Z,96284.75
2023-05-05T14:19:06.813Z,96274.66
2023-05-05T14:21:33.254Z,96278.25
2023-05-05T14:23:59.680Z,96276.97
2023-05-05T14:26:26.039Z,96279.31
2023-05-05T14:28:52.377Z,96270.88
2023-05-05T14:31:18.759Z,96264.03
2023-05-05T14:33:45.151Z,96270.41
2023-05-05T14:36:11.508Z,96264.59
2023-05-05T14:38:37.954Z,96258.47
2023-05-05T14:41:04.386Z,96266.38
2023-05-05T14:43:30.737Z,96266.53
2023-05-05T14:45:57.133Z,96270.53
2023-05-05T14:48:23.472Z,96273.53
2023-05-05T14:50:49.924Z,96278.09
2023-05-05T14:53:16.397Z,96266.81
2023-05-05T14:55:42.753Z,96270.22
2023-05-05T14:58:09.350Z,96270.47
2023-05-05T15:00:35.744Z,96276.41
2023-05-05T15:03:02.237Z,96272.75
2023-05-05T15:05:28.774Z,96267.72
2023-05-05T15:07:55.130Z,96281.03
2023-05-05T15:10:22.168Z,96277.53
2023-05-05T15:12:48.650Z,96284.09
2023-05-05T15:15:15.000Z,96285.00
2023-05-05T15:17:41.385Z,96289.06
2023-05-05T15:20:07.748Z,96285.66
2023-05-05T15:22:34.119Z,96280.34
2023-05-05T15:25:00.547Z,96279.91
2023-05-05T15:27:26.921Z,96282.38
2023-05-05T15:29:53.246Z,96286.94
2023-05-05T15:32:19.638Z,96289.63
2023-05-05T15:34:48.327Z,96290.81
2023-05-05T15:37:16.018Z,96287.50
2023-05-05T15:39:42.388Z,96285.06
2023-05-05T15:42:08.724Z,96285.72
2023-05-05T15:44:35.104Z,96281.00
2023-05-05T15:47:01.487Z,96291.25
2023-05-05T15:49:27.830Z,96291.06
2023-05-05T15:51:54.229Z,96294.41
2023-05-05T15:54:20.630Z,96291.56
2023-05-05T15:56:46.976Z,96298.34
2023-05-05T15:59:13.343Z,96295.16
2023-05-05T16:01:39.794Z,96304.75
2023-05-05T16:04:06.165Z,96307.44
2023-05-05T16:06:32.548Z,96304.94
2023-05-05T16:08:58.893Z,96311.22
2023-05-05T16:11:25.281Z,96306.19
2023-05-05T16:13:51.642Z,96313.13
2023-05-05T16:16:18.076Z,96315.78
2023-05-05T16:18:44.480Z,96316.59
2023-05-05T16:21:10.869Z,96316.44
2023-05-05T16:23:37.277Z,96316.91
2023-05-05T16:26:03.630Z,96319.44
2023-05-05T16:28:29.975Z,96316.09
2023-05-05T16:30:56.363Z,96309.81
2023-05-05T16:33:22.697Z,96312.84
2023-05-05T16:35:49.043Z,96314.41
2023-05-05T16:38:15.379Z,96311.25
2023-05-05T16:40:41.717Z,96312.47
2023-05-05T16:43:08.092Z,96309.34
2023-05-05T16:45:34.443Z,96319.75
2023-05-05T16:48:00.876Z,96305.41
2023-05-05T16:50:27.273Z,96307.47
2023-05-05T16:52:53.630Z,96308.88
2023-05-05T16:55:19.973Z,96305.91
2023-05-05T16:57:46.375Z,96305.56
2023-05-05T17:00:12.731Z,96309.50
2023-05-05T17:02:39.147Z,96295.63
2023-05-05T17:05:05.629Z,96301.63
2023-05-05T17:07:32.093Z,96292.63
2023-05-05T17:09:58.560Z,96294.06
2023-05-05T17:12:25.011Z,96291.84
2023-05-05T17:14:51.391Z,96296.97
2023-05-05T17:17:17.738Z,96301.66
2023-05-05T17:19:44.083Z,96296.91
2023-05-05T17:22:10.472Z,96296.84
2023-05-05T17:24:36.833Z,96304.84
2023-05-05T17:27:03.262Z,96306.88
2023-05-05T17:29:29.636Z,96305.03
2023-05-05T17:31:56.065Z,96313.53
2023-05-05T17:34:22.455Z,96307.69
2023-05-05T17:36:48.859Z,96308.19
2023-05-05T17:39:15.238Z,96309.63
2023-05-05T17:41:41.643Z,96319.22
2023-05-05T17:44:08.034Z,96314.75
2023-05-05T17:46:34.373Z,96317.41
2023-05-05T17:49:00.859Z,96319.47
2023-05-05T17:51:27.255Z,96324.56
2023-05-05T17:53:53.837Z,96322.19
2023-05-05T17:56:20.226Z,96319.22
2023-05-05T17:58:46.555Z,96327.72
2023-05-05T18:01:13.250Z,96330.09
2023-05-05T18:03:40.970Z,96331.50
2023-05-05T18:06:07.565Z,96334.88
2023-05-05T18:08:34.027Z,96336.44
2023-05-05T18:11:00.537Z,96335.81
2023-05-05T18:13:26.925Z,96339.25
2023-05-05T18:15:53.326Z,96346.41
2023-05-05T18:18:19.706Z,96349.81
2023-05-05T18:20:46.119Z,96350.03
2023-05-05T18:23:12.509Z,96352.84
2023-05-05T18:25:38.867Z,96343.34
2023-05-05T18:28:05.211Z,96354.63
2023-05-05T18:30:31.588Z,96352.56
2023-05-05T18:32:58.001Z,96350.66
2023-05-05T18:35:24.474Z,96347.09
2023-05-05T18:37:50.816Z,96341.38
2023-05-05T18:40:17.150Z,96354.22
2023-05-05T18:42:43.497Z,96353.91
2023-05-05T18:45:10.094Z,96366.28
2023-05-05T18:47:36.699Z,96360.38
2023-05-05T18:50:03.070Z,96370.78
2023-05-05T18:52:29.476Z,96367.34
2023-05-05T18:54:55.893Z,96367.03
2023-05-05T18:57:22.281Z,96373.63
2023-05-05T18:59:48.669Z,96370.59
2023-05-05T19:02:15.073Z,96372.28
2023-05-05T19:04:41.676Z,96367.56
2023-05-05T19:07:08.127Z,96375.19
2023-05-05T19:09:34.624Z,96380.53
2023-05-05T19:12:01.062Z,96378.34
2023-05-05T19:14:27.409Z,96384.63
2023-05-05T19:16:53.795Z,96387.53
2023-05-05T19:19:20.202Z,96384.78
2023-05-05T19:21:46.633Z,96394.03
2023-05-05T19:24:13.036Z,96392.06
2023-05-05T19:26:39.462Z,96388.56
2023-05-05T19:29:05.814Z,96392.88
2023-05-05T19:31:32.185Z,96396.56
2023-05-05T19:33:58.725Z,96398.31
2023-05-05T19:36:25.172Z,96401.25
2023-05-05T19:38:51.522Z,96412.63
2023-05-05T19:41:17.904Z,96410.13
2023-05-05T19:43:44.274Z,96408.09
2023-05-05T19:46:10.648Z,96405.06
2023-05-05T19:48:37.011Z,96414.44
2023-05-05T19:51:03.426Z,96404.59
2023-05-05T19:53:29.812Z,96413.06
2023-05-05T19:55:56.158Z,96416.88
2023-05-05T19:58:22.551Z,96417.78
2023-05-05T20:00:48.933Z,96418.44
2023-05-05T20:03:15.460Z,96412.91
2023-05-05T20:05:41.935Z,96407.19
2023-05-05T20:08:08.745Z,96405.63
2023-05-05T20:10:37.614Z,96401.00
2023-05-05T20:13:07.946Z,96405.50
2023-05-05T20:15:36.456Z,96410.69
2023-05-05T20:18:04.090Z,96408.31
2023-05-05T20:20:30.875Z,96411.88
2023-05-05T20:22:58.161Z,96417.50
2023-05-05T20:25:27.014Z,96411.50
2023-05-05T20:27:53.446Z,96414.19
2023-05-05T20:30:19.953Z,96408.09
2023-05-05T20:32:46.420Z,96408.69
2023-05-05T20:35:12.987Z,96417.69
2023-05-05T20:37:39.670Z,96419.81
2023-05-05T20:40:06.336Z,96420.38
2023-05-05T20:42:32.915Z,96418.19
2023-05-05T20:44:59.384Z,96425.06
2023-05-05T20:47:25.746Z,96427.63
2023-05-05T20:49:52.218Z,96432.50
2023-05-05T20:52:18.739Z,96422.47
2023-05-05T20:54:45.072Z,96427.44
2023-05-05T20:57:11.479Z,96432.94
2023-05-05T20:59:37.895Z,96427.09
2023-05-05T21:02:04.338Z,96421.94
2023-05-05T21:04:30.818Z,96424.09
2023-05-05T21:06:57.205Z,96414.44
2023-05-05T21:09:23.552Z,96419.56
2023-05-05T21:11:49.958Z,96419.19
2023-05-05T21:14:16.320Z,96405.81
2023-05-05T21:16:42.775Z,96407.63
2023-05-05T21:19:09.161Z,96412.94
2023-05-05T21:21:35.505Z,96414.31
2023-05-05T21:24:01.895Z,96419.97
2023-05-05T21:26:28.253Z,96422.13
2023-05-05T21:28:54.656Z,96414.16
2023-05-05T21:31:22.393Z,96420.34
2023-05-05T21:33:49.000Z,96415.91
2023-05-05T21:36:15.345Z,96414.22
2023-05-05T21:38:41.742Z,96421.09
2023-05-05T21:41:08.098Z,96424.31
2023-05-05T21:43:34.456Z,96434.78
2023-05-05T21:46:00.867Z,96436.69
2023-05-05T21:48:27.222Z,96428.22
2023-05-05T21:50:53.626Z,96428.72
2023-05-05T21:53:19.976Z,96422.44
2023-05-05T21:55:46.309Z,96414.47
2023-05-05T21:58:12.651Z,96398.41
2023-05-05T22:00:39.041Z,96390.59
2023-05-05T22:03:05.582Z,96388.78
2023-05-05T22:05:32.007Z,96397.88
2023-05-05T22:07:58.389Z,96408.47
2023-05-05T22:10:24.800Z,96397.28
2023-05-05T22:12:51.227Z,96409.03
2023-05-05T22:15:17.658Z,96408.59
2023-05-05T22:17:44.064Z,96400.16
2023-05-05T22:20:10.598Z,96408.13
2023-05-05T22:22:37.078Z,96401.75
2023-05-05T22:25:03.458Z,96397.09
2023-05-05T22:27:29.811Z,96397.94
2023-05-05T22:29:56.201Z,96398.22
2023-05-05T22:32:22.550Z,96404.00
2023-05-05T22:34:49.003Z,96397.56
2023-05-05T22:37:15.399Z,96400.75
2023-05-05T22:39:41.769Z,96394.19
2023-05-05T22:42:08.163Z,96391.38
2023-05-05T22:44:34.551Z,96389.28
2023-05-05T22:47:00.946Z,96392.81
2023-05-05T22:49:27.384Z,96394.78
2023-05-05T22:51:53.740Z,96391.59
2023-05-05T22:54:20.142Z,96399.84
2023-05-05T22:56:46.760Z,96405.25
2023-05-05T22:59:13.155Z,96402.41
2023-05-05T23:01:39.749Z,96407.22
2023-05-05T23:04:06.122Z,96406.25
2023-05-05T23:06:32.520Z,96402.06
2023-05-05T23:08:58.895Z,96401.50
2023-05-05T23:11:25.258Z,96404.22
2023-05-05T23:13:51.615Z,96402.66
2023-05-05T23:16:18.017Z,96396.53
2023-05-05T23:18:44.443Z,96389.88
2023-05-05T23:21:10.787Z,96398.34
2023-05-05T23:23:37.173Z,96401.84
2023-05-05T23:26:03.518Z,96401.63
2023-05-05T23:28:29.874Z,96404.31
2023-05-05T23:30:56.261Z,96413.81
2023-05-05T23:33:22.700Z,96395.25
2023-05-05T23:35:49.095Z,96394.69
2023-05-05T23:38:15.468Z,96394.16
2023-05-05T23:40:41.840Z,96395.19
2023-05-05T23:43:08.230Z,96389.28
2023-05-05T23:45:34.596Z,96389.28
2023-05-05T23:48:00.997Z,96391.94
2023-05-05T23:50:27.369Z,96399.06
2023-05-05T23:52:53.765Z,96400.34
2023-05-05T23:55:20.160Z,96400.34
2023-05-05T23:57:46.562Z,96391.84
